sensor_id;sensor_type;location;lat;lon;timestamp;P1;durP1;ratioP1;P2;durP2;ratioP2
62584;SDS011;48643;51.670;5.808;2024-03-07T00:00:51;21.83;;;12.30;;
62584;SDS011;48643;51.670;5.808;2024-03-07T00:03:20;20.67;;;12.43;;
62584;SDS011;48643;51.670;5.808;2024-03-07T00:05:47;20.23;;;11.30;;
62584;SDS011;48643;51.670;5.808;2024-03-07T00:08:14;24.98;;;12.48;;
62584;SDS011;48643;51.670;5.808;2024-03-07T00:10:42;21.45;;;12.15;;
62584;SDS011;48643;51.670;5.808;2024-03-07T00:13:10;21.90;;;12.37;;
62584;SDS011;48643;51.670;5.808;2024-03-07T00:15:39;24.00;;;12.45;;
62584;SDS011;48643;51.670;5.808;2024-03-07T00:18:08;19.08;;;11.75;;
62584;SDS011;48643;51.670;5.808;2024-03-07T00:20:37;24.35;;;12.32;;
62584;SDS011;48643;51.670;5.808;2024-03-07T00:23:04;21.15;;;11.70;;
62584;SDS011;48643;51.670;5.808;2024-03-07T00:25:31;21.75;;;12.15;;
62584;SDS011;48643;51.670;5.808;2024-03-07T00:27:58;18.48;;;11.52;;
62584;SDS011;48643;51.670;5.808;2024-03-07T00:30:29;22.23;;;12.55;;
62584;SDS011;48643;51.670;5.808;2024-03-07T00:32:57;20.70;;;12.13;;
62584;SDS011;48643;51.670;5.808;2024-03-07T00:35:24;21.13;;;12.13;;
62584;SDS011;48643;51.670;5.808;2024-03-07T00:37:51;19.83;;;11.90;;
62584;SDS011;48643;51.670;5.808;2024-03-07T00:40:18;20.58;;;12.10;;
62584;SDS011;48643;51.670;5.808;2024-03-07T00:42:45;21.55;;;12.25;;
62584;SDS011;48643;51.670;5.808;2024-03-07T00:45:12;19.40;;;11.77;;
62584;SDS011;48643;51.670;5.808;2024-03-07T00:47:39;19.55;;;11.93;;
62584;SDS011;48643;51.670;5.808;2024-03-07T00:50:06;20.58;;;12.15;;
62584;SDS011;48643;51.670;5.808;2024-03-07T00:52:36;20.42;;;11.98;;
62584;SDS011;48643;51.670;5.808;2024-03-07T00:55:03;23.48;;;12.85;;
62584;SDS011;48643;51.670;5.808;2024-03-07T00:57:31;24.40;;;12.02;;
62584;SDS011;48643;51.670;5.808;2024-03-07T00:59:58;21.17;;;12.23;;
62584;SDS011;48643;51.670;5.808;2024-03-07T01:02:24;20.42;;;12.18;;
62584;SDS011;48643;51.670;5.808;2024-03-07T01:04:52;21.05;;;11.90;;
62584;SDS011;48643;51.670;5.808;2024-03-07T01:07:20;20.92;;;12.73;;
62584;SDS011;48643;51.670;5.808;2024-03-07T01:09:48;20.13;;;12.23;;
62584;SDS011;48643;51.670;5.808;2024-03-07T01:12:15;24.40;;;12.82;;
62584;SDS011;48643;51.670;5.808;2024-03-07T01:14:43;19.35;;;11.85;;
62584;SDS011;48643;51.670;5.808;2024-03-07T01:17:10;19.63;;;12.23;;
62584;SDS011;48643;51.670;5.808;2024-03-07T01:19:38;23.42;;;12.93;;
62584;SDS011;48643;51.670;5.808;2024-03-07T01:22:05;21.10;;;12.50;;
62584;SDS011;48643;51.670;5.808;2024-03-07T01:24:32;19.70;;;11.32;;
62584;SDS011;48643;51.670;5.808;2024-03-07T01:27:00;22.02;;;12.52;;
62584;SDS011;48643;51.670;5.808;2024-03-07T01:29:27;21.70;;;12.43;;
62584;SDS011;48643;51.670;5.808;2024-03-07T01:31:54;20.70;;;12.13;;
62584;SDS011;48643;51.670;5.808;2024-03-07T01:34:21;20.90;;;12.30;;
62584;SDS011;48643;51.670;5.808;2024-03-07T01:36:48;20.98;;;12.60;;
62584;SDS011;48643;51.670;5.808;2024-03-07T01:39:15;22.00;;;12.82;;
62584;SDS011;48643;51.670;5.808;2024-03-07T01:41:42;23.25;;;12.73;;
62584;SDS011;48643;51.670;5.808;2024-03-07T01:44:09;21.75;;;12.15;;
62584;SDS011;48643;51.670;5.808;2024-03-07T01:46:36;23.02;;;12.63;;
62584;SDS011;48643;51.670;5.808;2024-03-07T01:49:03;23.02;;;13.35;;
62584;SDS011;48643;51.670;5.808;2024-03-07T01:51:34;21.80;;;12.88;;
62584;SDS011;48643;51.670;5.808;2024-03-07T01:54:02;23.42;;;12.75;;
62584;SDS011;48643;51.670;5.808;2024-03-07T01:56:29;22.83;;;12.88;;
62584;SDS011;48643;51.670;5.808;2024-03-07T01:58:56;27.45;;;13.35;;
62584;SDS011;48643;51.670;5.808;2024-03-07T02:03:53;24.23;;;12.85;;
62584;SDS011;48643;51.670;5.808;2024-03-07T02:06:20;22.55;;;12.43;;
62584;SDS011;48643;51.670;5.808;2024-03-07T02:08:47;21.27;;;12.65;;
62584;SDS011;48643;51.670;5.808;2024-03-07T02:11:14;23.23;;;12.52;;
62584;SDS011;48643;51.670;5.808;2024-03-07T02:13:41;23.08;;;13.40;;
62584;SDS011;48643;51.670;5.808;2024-03-07T02:16:09;25.52;;;13.00;;
62584;SDS011;48643;51.670;5.808;2024-03-07T02:18:36;23.77;;;13.25;;
62584;SDS011;48643;51.670;5.808;2024-03-07T02:21:08;22.58;;;13.25;;
62584;SDS011;48643;51.670;5.808;2024-03-07T02:23:38;23.80;;;13.13;;
62584;SDS011;48643;51.670;5.808;2024-03-07T02:26:04;22.50;;;12.82;;
62584;SDS011;48643;51.670;5.808;2024-03-07T02:28:31;25.20;;;12.48;;
62584;SDS011;48643;51.670;5.808;2024-03-07T02:30:59;24.42;;;13.00;;
62584;SDS011;48643;51.670;5.808;2024-03-07T02:33:26;21.15;;;12.52;;
62584;SDS011;48643;51.670;5.808;2024-03-07T02:35:53;26.30;;;13.23;;
62584;SDS011;48643;51.670;5.808;2024-03-07T02:38:20;22.38;;;13.20;;
62584;SDS011;48643;51.670;5.808;2024-03-07T02:40:47;23.13;;;13.18;;
62584;SDS011;48643;51.670;5.808;2024-03-07T02:43:14;21.65;;;12.80;;
62584;SDS011;48643;51.670;5.808;2024-03-07T02:45:42;21.95;;;12.82;;
62584;SDS011;48643;51.670;5.808;2024-03-07T02:48:09;23.73;;;13.00;;
62584;SDS011;48643;51.670;5.808;2024-03-07T02:50:36;22.52;;;13.13;;
62584;SDS011;48643;51.670;5.808;2024-03-07T02:55:33;23.85;;;13.25;;
62584;SDS011;48643;51.670;5.808;2024-03-07T02:58:00;24.17;;;13.48;;
62584;SDS011;48643;51.670;5.808;2024-03-07T03:00:27;27.90;;;13.23;;
62584;SDS011;48643;51.670;5.808;2024-03-07T03:02:56;26.10;;;13.90;;
62584;SDS011;48643;51.670;5.808;2024-03-07T03:05:23;23.35;;;13.13;;
62584;SDS011;48643;51.670;5.808;2024-03-07T03:07:51;22.00;;;13.15;;
62584;SDS011;48643;51.670;5.808;2024-03-07T03:10:24;25.65;;;13.40;;
62584;SDS011;48643;51.670;5.808;2024-03-07T03:12:59;21.00;;;12.57;;
62584;SDS011;48643;51.670;5.808;2024-03-07T03:15:28;25.70;;;13.55;;
62584;SDS011;48643;51.670;5.808;2024-03-07T03:17:55;24.00;;;13.10;;
62584;SDS011;48643;51.670;5.808;2024-03-07T03:20:26;22.10;;;13.10;;
62584;SDS011;48643;51.670;5.808;2024-03-07T03:23:05;23.42;;;13.18;;
62584;SDS011;48643;51.670;5.808;2024-03-07T03:25:45;24.58;;;13.38;;
62584;SDS011;48643;51.670;5.808;2024-03-07T03:28:15;26.35;;;13.73;;
62584;SDS011;48643;51.670;5.808;2024-03-07T03:30:42;24.48;;;13.77;;
62584;SDS011;48643;51.670;5.808;2024-03-07T03:33:09;22.98;;;14.07;;
62584;SDS011;48643;51.670;5.808;2024-03-07T03:35:38;25.65;;;13.70;;
62584;SDS011;48643;51.670;5.808;2024-03-07T03:38:05;23.98;;;13.25;;
62584;SDS011;48643;51.670;5.808;2024-03-07T03:40:33;25.92;;;14.68;;
62584;SDS011;48643;51.670;5.808;2024-03-07T03:43:01;24.67;;;13.40;;
62584;SDS011;48643;51.670;5.808;2024-03-07T03:45:28;26.30;;;13.93;;
62584;SDS011;48643;51.670;5.808;2024-03-07T03:47:55;25.83;;;13.85;;
62584;SDS011;48643;51.670;5.808;2024-03-07T03:50:23;24.45;;;14.48;;
62584;SDS011;48643;51.670;5.808;2024-03-07T03:52:50;26.23;;;13.88;;
62584;SDS011;48643;51.670;5.808;2024-03-07T03:55:17;25.35;;;13.50;;
62584;SDS011;48643;51.670;5.808;2024-03-07T03:57:44;26.73;;;14.15;;
62584;SDS011;48643;51.670;5.808;2024-03-07T04:00:13;27.13;;;14.65;;
62584;SDS011;48643;51.670;5.808;2024-03-07T04:02:40;25.88;;;14.85;;
62584;SDS011;48643;51.670;5.808;2024-03-07T04:05:08;25.23;;;14.38;;
62584;SDS011;48643;51.670;5.808;2024-03-07T04:07:37;26.77;;;13.90;;
62584;SDS011;48643;51.670;5.808;2024-03-07T04:10:04;24.90;;;13.98;;
62584;SDS011;48643;51.670;5.808;2024-03-07T04:12:36;27.88;;;14.98;;
62584;SDS011;48643;51.670;5.808;2024-03-07T04:15:05;27.02;;;14.23;;
62584;SDS011;48643;51.670;5.808;2024-03-07T04:17:40;24.50;;;14.43;;
62584;SDS011;48643;51.670;5.808;2024-03-07T04:20:07;25.20;;;14.68;;
62584;SDS011;48643;51.670;5.808;2024-03-07T04:25:06;23.20;;;13.88;;
62584;SDS011;48643;51.670;5.808;2024-03-07T04:27:34;23.52;;;13.70;;
62584;SDS011;48643;51.670;5.808;2024-03-07T04:30:03;24.30;;;13.18;;
62584;SDS011;48643;51.670;5.808;2024-03-07T04:32:33;25.85;;;14.00;;
62584;SDS011;48643;51.670;5.808;2024-03-07T04:35:06;26.83;;;14.63;;
62584;SDS011;48643;51.670;5.808;2024-03-07T04:37:34;26.42;;;14.27;;
62584;SDS011;48643;51.670;5.808;2024-03-07T04:40:06;26.38;;;14.57;;
62584;SDS011;48643;51.670;5.808;2024-03-07T04:42:46;25.58;;;14.55;;
62584;SDS011;48643;51.670;5.808;2024-03-07T04:45:16;26.73;;;13.95;;
62584;SDS011;48643;51.670;5.808;2024-03-07T04:47:44;27.67;;;15.07;;
62584;SDS011;48643;51.670;5.808;2024-03-07T04:50:12;24.48;;;14.15;;
62584;SDS011;48643;51.670;5.808;2024-03-07T04:52:40;25.75;;;14.80;;
62584;SDS011;48643;51.670;5.808;2024-03-07T04:55:08;26.35;;;14.27;;
62584;SDS011;48643;51.670;5.808;2024-03-07T04:57:36;25.35;;;14.52;;
62584;SDS011;48643;51.670;5.808;2024-03-07T05:00:09;24.88;;;14.73;;
62584;SDS011;48643;51.670;5.808;2024-03-07T05:02:43;27.90;;;14.73;;
62584;SDS011;48643;51.670;5.808;2024-03-07T05:05:10;25.02;;;14.23;;
62584;SDS011;48643;51.670;5.808;2024-03-07T05:07:39;30.48;;;15.40;;
62584;SDS011;48643;51.670;5.808;2024-03-07T05:10:07;25.02;;;14.57;;
62584;SDS011;48643;51.670;5.808;2024-03-07T05:12:35;27.50;;;14.70;;
62584;SDS011;48643;51.670;5.808;2024-03-07T05:15:04;24.88;;;14.80;;
62584;SDS011;48643;51.670;5.808;2024-03-07T05:17:31;29.20;;;15.90;;
62584;SDS011;48643;51.670;5.808;2024-03-07T05:20:01;26.38;;;15.10;;
62584;SDS011;48643;51.670;5.808;2024-03-07T05:22:29;25.20;;;14.35;;
62584;SDS011;48643;51.670;5.808;2024-03-07T05:24:57;25.50;;;14.57;;
62584;SDS011;48643;51.670;5.808;2024-03-07T05:27:26;27.17;;;14.93;;
62584;SDS011;48643;51.670;5.808;2024-03-07T05:29:54;27.02;;;14.95;;
62584;SDS011;48643;51.670;5.808;2024-03-07T05:32:23;26.58;;;15.35;;
62584;SDS011;48643;51.670;5.808;2024-03-07T05:34:51;30.05;;;15.77;;
62584;SDS011;48643;51.670;5.808;2024-03-07T05:37:22;23.83;;;14.30;;
62584;SDS011;48643;51.670;5.808;2024-03-07T05:39:50;28.88;;;15.45;;
62584;SDS011;48643;51.670;5.808;2024-03-07T05:42:17;29.10;;;14.90;;
62584;SDS011;48643;51.670;5.808;2024-03-07T05:44:45;27.08;;;14.93;;
62584;SDS011;48643;51.670;5.808;2024-03-07T05:47:12;30.20;;;15.20;;
62584;SDS011;48643;51.670;5.808;2024-03-07T05:49:43;27.80;;;15.27;;
62584;SDS011;48643;51.670;5.808;2024-03-07T05:52:10;26.63;;;15.38;;
62584;SDS011;48643;51.670;5.808;2024-03-07T05:54:37;28.30;;;15.13;;
62584;SDS011;48643;51.670;5.808;2024-03-07T05:57:04;26.70;;;14.95;;
62584;SDS011;48643;51.670;5.808;2024-03-07T05:59:33;28.88;;;15.68;;
62584;SDS011;48643;51.670;5.808;2024-03-07T06:02:00;26.25;;;14.73;;
62584;SDS011;48643;51.670;5.808;2024-03-07T06:04:27;28.50;;;15.25;;
62584;SDS011;48643;51.670;5.808;2024-03-07T06:06:55;26.75;;;15.00;;
62584;SDS011;48643;51.670;5.808;2024-03-07T06:09:22;26.55;;;15.23;;
62584;SDS011;48643;51.670;5.808;2024-03-07T06:11:50;24.77;;;14.95;;
62584;SDS011;48643;51.670;5.808;2024-03-07T06:14:17;29.08;;;15.60;;
62584;SDS011;48643;51.670;5.808;2024-03-07T06:16:44;30.60;;;15.50;;
62584;SDS011;48643;51.670;5.808;2024-03-07T06:19:11;26.90;;;15.32;;
62584;SDS011;48643;51.670;5.808;2024-03-07T06:21:39;27.98;;;15.82;;
62584;SDS011;48643;51.670;5.808;2024-03-07T06:24:07;31.08;;;15.07;;
62584;SDS011;48643;51.670;5.808;2024-03-07T06:26:37;25.75;;;14.82;;
62584;SDS011;48643;51.670;5.808;2024-03-07T06:29:08;29.70;;;15.52;;
62584;SDS011;48643;51.670;5.808;2024-03-07T06:31:38;28.42;;;15.32;;
62584;SDS011;48643;51.670;5.808;2024-03-07T06:34:05;27.63;;;15.18;;
62584;SDS011;48643;51.670;5.808;2024-03-07T06:36:32;27.98;;;14.98;;
62584;SDS011;48643;51.670;5.808;2024-03-07T06:38:59;27.77;;;15.77;;
62584;SDS011;48643;51.670;5.808;2024-03-07T06:41:26;27.33;;;15.48;;
62584;SDS011;48643;51.670;5.808;2024-03-07T06:43:53;28.35;;;15.35;;
62584;SDS011;48643;51.670;5.808;2024-03-07T06:46:22;28.83;;;15.48;;
62584;SDS011;48643;51.670;5.808;2024-03-07T06:48:50;27.63;;;15.35;;
62584;SDS011;48643;51.670;5.808;2024-03-07T06:51:18;27.92;;;15.27;;
62584;SDS011;48643;51.670;5.808;2024-03-07T06:53:45;28.85;;;16.13;;
62584;SDS011;48643;51.670;5.808;2024-03-07T06:56:16;27.42;;;15.60;;
62584;SDS011;48643;51.670;5.808;2024-03-07T06:58:44;26.63;;;15.77;;
62584;SDS011;48643;51.670;5.808;2024-03-07T07:01:14;25.88;;;15.18;;
62584;SDS011;48643;51.670;5.808;2024-03-07T07:03:42;24.95;;;15.25;;
62584;SDS011;48643;51.670;5.808;2024-03-07T07:06:10;28.50;;;15.73;;
62584;SDS011;48643;51.670;5.808;2024-03-07T07:08:37;26.90;;;15.40;;
62584;SDS011;48643;51.670;5.808;2024-03-07T07:11:04;30.13;;;16.02;;
62584;SDS011;48643;51.670;5.808;2024-03-07T07:13:32;26.38;;;15.40;;
62584;SDS011;48643;51.670;5.808;2024-03-07T07:15:59;26.20;;;15.30;;
62584;SDS011;48643;51.670;5.808;2024-03-07T07:18:26;29.30;;;15.32;;
62584;SDS011;48643;51.670;5.808;2024-03-07T07:20:53;30.30;;;15.60;;
62584;SDS011;48643;51.670;5.808;2024-03-07T07:23:21;27.85;;;16.20;;
62584;SDS011;48643;51.670;5.808;2024-03-07T07:25:47;33.03;;;16.55;;
62584;SDS011;48643;51.670;5.808;2024-03-07T07:28:14;30.00;;;15.93;;
62584;SDS011;48643;51.670;5.808;2024-03-07T07:30:42;30.23;;;17.05;;
62584;SDS011;48643;51.670;5.808;2024-03-07T07:33:11;31.23;;;17.13;;
62584;SDS011;48643;51.670;5.808;2024-03-07T07:35:39;28.80;;;16.23;;
62584;SDS011;48643;51.670;5.808;2024-03-07T07:38:07;29.60;;;17.33;;
62584;SDS011;48643;51.670;5.808;2024-03-07T07:40:37;29.27;;;15.90;;
62584;SDS011;48643;51.670;5.808;2024-03-07T07:43:04;29.80;;;16.42;;
62584;SDS011;48643;51.670;5.808;2024-03-07T07:45:32;30.05;;;16.65;;
62584;SDS011;48643;51.670;5.808;2024-03-07T07:48:02;29.42;;;15.40;;
62584;SDS011;48643;51.670;5.808;2024-03-07T07:50:29;28.73;;;16.23;;
62584;SDS011;48643;51.670;5.808;2024-03-07T07:52:58;27.15;;;15.98;;
62584;SDS011;48643;51.670;5.808;2024-03-07T07:55:29;30.25;;;16.05;;
62584;SDS011;48643;51.670;5.808;2024-03-07T07:57:57;26.73;;;14.65;;
62584;SDS011;48643;51.670;5.808;2024-03-07T08:00:25;31.10;;;15.30;;
62584;SDS011;48643;51.670;5.808;2024-03-07T08:03:00;27.77;;;15.88;;
62584;SDS011;48643;51.670;5.808;2024-03-07T08:05:29;25.35;;;14.93;;
62584;SDS011;48643;51.670;5.808;2024-03-07T08:08:03;27.55;;;15.15;;
62584;SDS011;48643;51.670;5.808;2024-03-07T08:10:33;25.13;;;14.07;;
62584;SDS011;48643;51.670;5.808;2024-03-07T08:13:01;28.00;;;14.60;;
62584;SDS011;48643;51.670;5.808;2024-03-07T08:15:29;21.73;;;13.75;;
62584;SDS011;48643;51.670;5.808;2024-03-07T08:17:57;22.23;;;13.70;;
62584;SDS011;48643;51.670;5.808;2024-03-07T08:20:26;23.63;;;14.30;;
62584;SDS011;48643;51.670;5.808;2024-03-07T08:22:54;24.60;;;13.35;;
62584;SDS011;48643;51.670;5.808;2024-03-07T08:25:23;23.30;;;13.80;;
62584;SDS011;48643;51.670;5.808;2024-03-07T08:27:51;22.33;;;13.55;;
62584;SDS011;48643;51.670;5.808;2024-03-07T08:30:20;23.90;;;14.30;;
62584;SDS011;48643;51.670;5.808;2024-03-07T08:32:50;30.83;;;13.57;;
62584;SDS011;48643;51.670;5.808;2024-03-07T08:35:19;23.20;;;13.40;;
62584;SDS011;48643;51.670;5.808;2024-03-07T08:37:47;21.55;;;13.07;;
62584;SDS011;48643;51.670;5.808;2024-03-07T08:40:28;20.33;;;12.73;;
62584;SDS011;48643;51.670;5.808;2024-03-07T08:43:00;28.15;;;13.35;;
62584;SDS011;48643;51.670;5.808;2024-03-07T08:45:28;23.38;;;13.18;;
62584;SDS011;48643;51.670;5.808;2024-03-07T08:47:56;21.20;;;12.52;;
62584;SDS011;48643;51.670;5.808;2024-03-07T08:52:53;23.73;;;12.80;;
62584;SDS011;48643;51.670;5.808;2024-03-07T08:55:20;19.92;;;11.85;;
62584;SDS011;48643;51.670;5.808;2024-03-07T08:57:53;19.80;;;11.93;;
62584;SDS011;48643;51.670;5.808;2024-03-07T09:00:20;20.40;;;12.30;;
62584;SDS011;48643;51.670;5.808;2024-03-07T09:02:59;20.50;;;11.95;;
62584;SDS011;48643;51.670;5.808;2024-03-07T09:05:29;19.67;;;11.80;;
62584;SDS011;48643;51.670;5.808;2024-03-07T09:08:00;20.52;;;12.20;;
62584;SDS011;48643;51.670;5.808;2024-03-07T09:10:27;17.63;;;10.82;;
62584;SDS011;48643;51.670;5.808;2024-03-07T09:12:57;21.00;;;11.18;;
62584;SDS011;48643;51.670;5.808;2024-03-07T09:15:24;17.13;;;10.63;;
62584;SDS011;48643;51.670;5.808;2024-03-07T09:17:51;18.27;;;10.23;;
62584;SDS011;48643;51.670;5.808;2024-03-07T09:20:20;18.63;;;10.13;;
62584;SDS011;48643;51.670;5.808;2024-03-07T09:22:47;15.07;;;9.50;;
62584;SDS011;48643;51.670;5.808;2024-03-07T09:25:15;26.08;;;9.43;;
62584;SDS011;48643;51.670;5.808;2024-03-07T09:27:43;15.40;;;9.40;;
62584;SDS011;48643;51.670;5.808;2024-03-07T09:30:10;15.80;;;9.18;;
62584;SDS011;48643;51.670;5.808;2024-03-07T09:32:48;19.30;;;9.55;;
62584;SDS011;48643;51.670;5.808;2024-03-07T09:35:16;13.48;;;8.73;;
62584;SDS011;48643;51.670;5.808;2024-03-07T09:37:44;13.38;;;8.73;;
62584;SDS011;48643;51.670;5.808;2024-03-07T09:40:12;14.30;;;8.40;;
62584;SDS011;48643;51.670;5.808;2024-03-07T09:42:44;14.65;;;8.70;;
62584;SDS011;48643;51.670;5.808;2024-03-07T09:45:15;12.55;;;8.38;;
62584;SDS011;48643;51.670;5.808;2024-03-07T09:47:44;14.05;;;8.35;;
62584;SDS011;48643;51.670;5.808;2024-03-07T09:50:18;15.23;;;8.88;;
62584;SDS011;48643;51.670;5.808;2024-03-07T09:52:49;15.00;;;9.27;;
62584;SDS011;48643;51.670;5.808;2024-03-07T09:55:16;12.82;;;8.80;;
62584;SDS011;48643;51.670;5.808;2024-03-07T09:57:47;14.60;;;9.50;;
62584;SDS011;48643;51.670;5.808;2024-03-07T10:00:18;14.13;;;9.15;;
62584;SDS011;48643;51.670;5.808;2024-03-07T10:02:52;14.55;;;9.55;;
62584;SDS011;48643;51.670;5.808;2024-03-07T10:05:22;14.70;;;9.50;;
62584;SDS011;48643;51.670;5.808;2024-03-07T10:07:50;13.63;;;8.80;;
62584;SDS011;48643;51.670;5.808;2024-03-07T10:10:19;18.60;;;9.20;;
62584;SDS011;48643;51.670;5.808;2024-03-07T10:12:46;14.68;;;9.18;;
62584;SDS011;48643;51.670;5.808;2024-03-07T10:15:14;12.48;;;9.10;;
62584;SDS011;48643;51.670;5.808;2024-03-07T10:17:44;14.15;;;9.48;;
62584;SDS011;48643;51.670;5.808;2024-03-07T10:20:14;13.93;;;8.85;;
62584;SDS011;48643;51.670;5.808;2024-03-07T10:22:42;12.75;;;8.98;;
62584;SDS011;48643;51.670;5.808;2024-03-07T10:25:09;14.13;;;8.98;;
62584;SDS011;48643;51.670;5.808;2024-03-07T10:27:37;12.18;;;8.88;;
62584;SDS011;48643;51.670;5.808;2024-03-07T10:30:05;13.27;;;9.35;;
62584;SDS011;48643;51.670;5.808;2024-03-07T10:32:35;19.27;;;10.25;;
62584;SDS011;48643;51.670;5.808;2024-03-07T10:35:02;13.07;;;9.48;;
62584;SDS011;48643;51.670;5.808;2024-03-07T10:37:30;14.48;;;9.27;;
62584;SDS011;48643;51.670;5.808;2024-03-07T10:39:57;13.55;;;9.73;;
62584;SDS011;48643;51.670;5.808;2024-03-07T10:42:24;14.77;;;9.30;;
62584;SDS011;48643;51.670;5.808;2024-03-07T10:44:57;14.25;;;9.55;;
62584;SDS011;48643;51.670;5.808;2024-03-07T10:47:29;16.30;;;9.43;;
62584;SDS011;48643;51.670;5.808;2024-03-07T10:52:58;14.40;;;9.30;;
62584;SDS011;48643;51.670;5.808;2024-03-07T10:58:32;14.52;;;9.30;;
62584;SDS011;48643;51.670;5.808;2024-03-07T11:01:04;13.65;;;9.20;;
62584;SDS011;48643;51.670;5.808;2024-03-07T11:03:37;17.98;;;9.98;;
62584;SDS011;48643;51.670;5.808;2024-03-07T11:06:05;13.73;;;10.25;;
62584;SDS011;48643;51.670;5.808;2024-03-07T11:08:37;13.75;;;9.63;;
62584;SDS011;48643;51.670;5.808;2024-03-07T11:11:04;13.70;;;9.63;;
62584;SDS011;48643;51.670;5.808;2024-03-07T11:13:35;13.82;;;9.77;;
62584;SDS011;48643;51.670;5.808;2024-03-07T11:16:03;16.20;;;9.35;;
62584;SDS011;48643;51.670;5.808;2024-03-07T11:18:31;14.85;;;9.50;;
62584;SDS011;48643;51.670;5.808;2024-03-07T11:20:58;15.30;;;9.50;;
62584;SDS011;48643;51.670;5.808;2024-03-07T11:23:32;14.73;;;9.52;;
62584;SDS011;48643;51.670;5.808;2024-03-07T11:26:06;14.23;;;9.27;;
62584;SDS011;48643;51.670;5.808;2024-03-07T11:28:37;17.27;;;9.07;;
62584;SDS011;48643;51.670;5.808;2024-03-07T11:34:24;13.65;;;8.75;;
62584;SDS011;48643;51.670;5.808;2024-03-07T11:36:49;12.85;;;9.15;;
62584;SDS011;48643;51.670;5.808;2024-03-07T11:42:19;13.43;;;9.15;;
62584;SDS011;48643;51.670;5.808;2024-03-07T11:44:48;13.27;;;8.55;;
62584;SDS011;48643;51.670;5.808;2024-03-07T11:47:15;13.37;;;9.03;;
62584;SDS011;48643;51.670;5.808;2024-03-07T11:49:44;13.55;;;9.32;;
62584;SDS011;48643;51.670;5.808;2024-03-07T11:52:15;14.52;;;9.38;;
62584;SDS011;48643;51.670;5.808;2024-03-07T11:54:43;13.85;;;9.10;;
62584;SDS011;48643;51.670;5.808;2024-03-07T11:57:16;12.77;;;8.63;;
62584;SDS011;48643;51.670;5.808;2024-03-07T11:59:47;14.57;;;9.30;;
62584;SDS011;48643;51.670;5.808;2024-03-07T12:02:19;12.57;;;8.77;;
62584;SDS011;48643;51.670;5.808;2024-03-07T12:04:49;12.38;;;8.77;;
62584;SDS011;48643;51.670;5.808;2024-03-07T12:07:16;13.13;;;8.77;;
62584;SDS011;48643;51.670;5.808;2024-03-07T12:09:49;12.50;;;8.70;;
62584;SDS011;48643;51.670;5.808;2024-03-07T12:12:22;11.45;;;8.65;;
62584;SDS011;48643;51.670;5.808;2024-03-07T12:14:51;12.25;;;8.52;;
62584;SDS011;48643;51.670;5.808;2024-03-07T12:17:18;13.88;;;8.43;;
62584;SDS011;48643;51.670;5.808;2024-03-07T12:19:46;12.20;;;8.50;;
62584;SDS011;48643;51.670;5.808;2024-03-07T12:22:13;9.73;;;7.85;;
62584;SDS011;48643;51.670;5.808;2024-03-07T12:24:41;10.75;;;7.78;;
62584;SDS011;48643;51.670;5.808;2024-03-07T12:27:09;33.13;;;8.05;;
62584;SDS011;48643;51.670;5.808;2024-03-07T12:32:08;10.70;;;7.40;;
62584;SDS011;48643;51.670;5.808;2024-03-07T12:34:37;11.07;;;7.45;;
62584;SDS011;48643;51.670;5.808;2024-03-07T12:37:07;12.50;;;8.00;;
62584;SDS011;48643;51.670;5.808;2024-03-07T12:39:35;11.30;;;7.70;;
62584;SDS011;48643;51.670;5.808;2024-03-07T12:42:06;11.75;;;7.93;;
62584;SDS011;48643;51.670;5.808;2024-03-07T12:44:42;11.32;;;7.53;;
62584;SDS011;48643;51.670;5.808;2024-03-07T12:47:15;9.88;;;7.50;;
62584;SDS011;48643;51.670;5.808;2024-03-07T12:49:43;11.60;;;7.40;;
62584;SDS011;48643;51.670;5.808;2024-03-07T12:52:11;10.60;;;7.57;;
62584;SDS011;48643;51.670;5.808;2024-03-07T12:54:41;16.30;;;7.28;;
62584;SDS011;48643;51.670;5.808;2024-03-07T12:57:12;9.20;;;7.32;;
62584;SDS011;48643;51.670;5.808;2024-03-07T12:59:39;9.15;;;7.00;;
62584;SDS011;48643;51.670;5.808;2024-03-07T13:02:09;10.60;;;7.25;;
62584;SDS011;48643;51.670;5.808;2024-03-07T13:04:36;10.15;;;7.75;;
62584;SDS011;48643;51.670;5.808;2024-03-07T13:07:07;10.50;;;7.50;;
62584;SDS011;48643;51.670;5.808;2024-03-07T13:09:34;13.32;;;7.35;;
62584;SDS011;48643;51.670;5.808;2024-03-07T13:12:01;9.57;;;7.30;;
62584;SDS011;48643;51.670;5.808;2024-03-07T13:14:30;11.35;;;7.90;;
62584;SDS011;48643;51.670;5.808;2024-03-07T13:17:00;12.35;;;7.97;;
62584;SDS011;48643;51.670;5.808;2024-03-07T13:19:31;9.68;;;7.05;;
62584;SDS011;48643;51.670;5.808;2024-03-07T13:21:58;16.05;;;7.35;;
62584;SDS011;48643;51.670;5.808;2024-03-07T13:24:25;9.38;;;7.22;;
62584;SDS011;48643;51.670;5.808;2024-03-07T13:26:53;9.32;;;7.25;;
62584;SDS011;48643;51.670;5.808;2024-03-07T13:29:20;11.27;;;7.60;;
62584;SDS011;48643;51.670;5.808;2024-03-07T13:31:51;10.40;;;7.95;;
62584;SDS011;48643;51.670;5.808;2024-03-07T13:34:18;11.57;;;8.23;;
62584;SDS011;48643;51.670;5.808;2024-03-07T13:36:45;11.05;;;8.43;;
62584;SDS011;48643;51.670;5.808;2024-03-07T13:39:12;10.57;;;7.82;;
62584;SDS011;48643;51.670;5.808;2024-03-07T13:41:41;11.80;;;8.52;;
62584;SDS011;48643;51.670;5.808;2024-03-07T13:44:08;12.77;;;8.02;;
62584;SDS011;48643;51.670;5.808;2024-03-07T13:46:35;11.57;;;8.55;;
62584;SDS011;48643;51.670;5.808;2024-03-07T13:49:03;13.75;;;9.18;;
62584;SDS011;48643;51.670;5.808;2024-03-07T13:51:40;12.68;;;10.18;;
62584;SDS011;48643;51.670;5.808;2024-03-07T13:54:17;14.70;;;9.77;;
62584;SDS011;48643;51.670;5.808;2024-03-07T13:59:36;13.45;;;9.57;;
62584;SDS011;48643;51.670;5.808;2024-03-07T14:25:04;11.10;;;9.20;;
62584;SDS011;48643;51.670;5.808;2024-03-07T14:30:51;13.65;;;9.07;;
62584;SDS011;48643;51.670;5.808;2024-03-07T14:33:26;18.90;;;11.05;;
62584;SDS011;48643;51.670;5.808;2024-03-07T14:36:00;20.80;;;9.52;;
62584;SDS011;48643;51.670;5.808;2024-03-07T14:38:30;13.57;;;8.50;;
62584;SDS011;48643;51.670;5.808;2024-03-07T14:41:06;14.50;;;8.25;;
62584;SDS011;48643;51.670;5.808;2024-03-07T14:43:34;13.95;;;8.25;;
62584;SDS011;48643;51.670;5.808;2024-03-07T14:46:01;12.18;;;7.93;;
62584;SDS011;48643;51.670;5.808;2024-03-07T14:48:28;11.05;;;7.82;;
62584;SDS011;48643;51.670;5.808;2024-03-07T14:50:55;11.00;;;7.60;;
62584;SDS011;48643;51.670;5.808;2024-03-07T14:53:22;11.25;;;7.55;;
62584;SDS011;48643;51.670;5.808;2024-03-07T14:55:49;13.00;;;7.90;;
62584;SDS011;48643;51.670;5.808;2024-03-07T14:58:16;10.70;;;8.02;;
62584;SDS011;48643;51.670;5.808;2024-03-07T15:00:43;12.75;;;7.68;;
62584;SDS011;48643;51.670;5.808;2024-03-07T15:03:23;12.38;;;7.45;;
62584;SDS011;48643;51.670;5.808;2024-03-07T15:05:51;12.33;;;7.47;;
62584;SDS011;48643;51.670;5.808;2024-03-07T15:08:18;13.10;;;7.70;;
62584;SDS011;48643;51.670;5.808;2024-03-07T15:10:53;13.90;;;7.75;;
62584;SDS011;48643;51.670;5.808;2024-03-07T15:13:30;11.30;;;8.02;;
62584;SDS011;48643;51.670;5.808;2024-03-07T15:15:57;12.15;;;8.73;;
62584;SDS011;48643;51.670;5.808;2024-03-07T15:18:25;12.10;;;8.20;;
62584;SDS011;48643;51.670;5.808;2024-03-07T15:20:53;12.27;;;8.38;;
62584;SDS011;48643;51.670;5.808;2024-03-07T15:23:20;12.10;;;8.40;;
62584;SDS011;48643;51.670;5.808;2024-03-07T15:25:48;11.05;;;8.63;;
62584;SDS011;48643;51.670;5.808;2024-03-07T15:28:15;15.02;;;8.35;;